This is the latest recevied weather packets stored in our database for station/object WA1NHP. If no packets are shown the sender has not sent any weather packets the latest 10 day(s).
| Time | Temp. | Humidity | Pressure | Rain* | Wind** | Luminosity | Snow |
|---|---|---|---|---|---|---|---|
| 1777760044 | 10.56° C | 59% | 1023.9 hPa | 0 mm | - | 77 W/m² | - |
| 1777759444 | 10.56° C | 60% | 1023.9 hPa | 0 mm | - | 77 W/m² | - |
| 1777758843 | 11.11° C | 60% | 1023.9 hPa | 0 mm | - | 90 W/m² | - |
| 1777758244 | 11.11° C | 59% | 1023.9 hPa | 0 mm | - | 132 W/m² | - |
| 1777757644 | 11.11° C | 59% | 1023.9 hPa | 0 mm | - | 134 W/m² | - |
| 1777757043 | 11.11° C | 58% | 1023.9 hPa | 0 mm | - | 149 W/m² | - |
| 1777753444 | 11.67° C | 66% | 1023.9 hPa | 0 mm | - | 179 W/m² | - |
| 1777752844 | 11.67° C | 67% | 1023.9 hPa | 0 mm | - | 156 W/m² | - |
| 1777752244 | 11.67° C | 69% | 1023.9 hPa | 0 mm | - | 318 W/m² | - |
| 1777750444 | 11.11° C | 73% | 1023.9 hPa | 0 mm | - | 218 W/m² | - |
| 1777749844 | 11.11° C | 74% | 1023.9 hPa | 0 mm | - | 135 W/m² | - |
| 1777749244 | 11.11° C | 74% | 1023.9 hPa | 0 mm | - | 200 W/m² | - |
| 1777748644 | 11.11° C | 72% | 1023.9 hPa | 0 mm | - | 218 W/m² | - |
| 1777747444 | 11.11° C | 75% | 1023.9 hPa | 0 mm | - | 160 W/m² | - |
| 1777745644 | 11.11° C | 76% | 1023.9 hPa | 0 mm | - | 605 W/m² | - |
| 1777739044 | 9.44° C | 88% | 1023.9 hPa | 0.25 mm | - | 417 W/m² | - |
| 1777737843 | 10.56° C | 90% | 1023.9 hPa | 0.25 mm | - | 1208 W/m² | - |
| 1777736043 | 8.89° C | 88% | 1023.9 hPa | 0 mm | - | 95 W/m² | - |
| 1777735444 | 9.44° C | 85% | 1023.9 hPa | 0 mm | - | 155 W/m² | - |
| 1777734844 | 10° C | 88% | 1023.9 hPa | 0 mm | - | 1345 W/m² | - |
| 1777734244 | 8.89° C | 90% | 1023.9 hPa | 0 mm | - | 482 W/m² | - |
| 1777733644 | 8.33° C | 89% | 1023.9 hPa | 0 mm | - | 162 W/m² | - |
| 1777732443 | 8.89° C | 92% | 1023.9 hPa | 0 mm | - | 274 W/m² | - |
| 1777731844 | 8.89° C | 95% | 1023.9 hPa | 0 mm | - | 406 W/m² | - |
| 1777731245 | 8.33° C | 96% | 1023.9 hPa | 0 mm | - | 376 W/m² | - |
* Rain latest hour (hover to see other rain measurements)
** Current wind speed in m/s (hover to see current wind gust speed)